Ault Field, Washington
Current Conditions -  °F | °C
As of 1:56 PM on Wednesday 22 Oct 2014 (Local Time) from KNUW Reporting Station
Overcast Overcast  
Wind Chill: 59°   Ceiling: 1500
Heat Index: 59°   Visibility: 10mi
Dew Point: 54°   Wind: 13mph
Humidity: 83%   Direction: 150°SSE
Pressure: 29.66"   Gusts: NA
Location:  48.3182°N, 122.634°W
Report Text: KNUW 222056Z 15011KT 10SM BKN015 OVC020 15/12 A2966 RMK AO2 SLP046 60000 T01500122 58009 $
Loading
Personal Weather Stations






























Interactive Weather Map
Tropical Storm Tracking
New forecast layout! Learn more

10-Day Weather Forecast

Advertisements
Track Severe Weather on mobile